Time;durP1;ratioP1;P1;durP2;ratioP2;P2;SDS_P1;SDS_P2;PMS_P1;PMS_P2;Temp;Humidity;BMP_temperature;BMP_pressure;BME280_temperature;BME280_humidity;BME280_pressure;Samples;Min_cycle;Max_cycle;Signal;HPM_P1;HPM_P2
2024/01/04 00:00:14;;;;;;;;;;;8.60;99.90;;;;;;5053589;28;20360;-72
2024/01/04 00:02:43;;;;;;;;;;;8.60;99.90;;;;;;5071047;28;19948;-72
2024/01/04 00:05:12;;;;;;;;;;;8.60;99.90;;;;;;5056509;28;19924;-74
2024/01/04 00:07:40;;;;;;;;;;;8.60;99.90;;;;;;5054998;28;19927;-72
2024/01/04 00:10:08;;;;;;;;;;;8.70;99.90;;;;;;5093355;22;20367;-65
2024/01/04 00:12:36;;;;;;;;;;;8.70;99.90;;;;;;5073399;28;20011;-65
2024/01/04 00:15:04;;;;;;;;;;;8.70;99.90;;;;;;5073819;28;20019;-64
2024/01/04 00:17:32;;;;;;;;;;;8.80;99.90;;;;;;5073774;28;20317;-65
2024/01/04 00:20:01;;;;;;;;;;;8.80;99.90;;;;;;5056485;28;19970;-64
2024/01/04 00:22:30;;;;;;;;;;;8.80;99.90;;;;;;5053355;28;20015;-64
2024/01/04 00:24:57;;;;;;;;;;;8.80;99.90;;;;;;5053224;28;20342;-67
2024/01/04 00:27:25;;;;;;;;;;;8.80;99.90;;;;;;5053282;28;19924;-64
2024/01/04 00:29:53;;;;;;;;;;;8.80;99.90;;;;;;5045195;28;20404;-64
2024/01/04 00:32:21;;;;;;;;;;;8.90;99.90;;;;;;5053663;28;20460;-64
2024/01/04 00:34:49;;;;;;;;;;;8.90;99.90;;;;;;5053087;28;19929;-64
2024/01/04 00:37:16;;;;;;;;;;;8.90;99.90;;;;;;5051173;28;19925;-64
2024/01/04 00:39:48;;;;;;;;;;;8.90;99.90;;;;;;5051963;28;19929;-64
2024/01/04 00:42:16;;;;;;;;;;;8.90;99.90;;;;;;5050426;28;20343;-64
2024/01/04 00:44:44;;;;;;;;;;;8.90;99.90;;;;;;5034220;28;19921;-64
2024/01/04 00:47:11;;;;;;;;;;;8.90;99.90;;;;;;5053303;28;19925;-64
2024/01/04 00:49:39;;;;;;;;;;;9.00;99.90;;;;;;5051404;28;20339;-64
2024/01/04 00:52:07;;;;;;;;;;;8.90;99.90;;;;;;5051515;28;19928;-64
2024/01/04 00:54:35;;;;;;;;;;;8.90;99.90;;;;;;5051276;28;19959;-64
2024/01/04 00:57:05;;;;;;;;;;;9.00;99.90;;;;;;5052415;28;19947;-64
2024/01/04 00:59:33;;;;;;;;;;;9.00;99.90;;;;;;5056744;28;19921;-64
2024/01/04 01:02:00;;;;;;;;;;;9.00;99.90;;;;;;5057456;28;20378;-64
2024/01/04 01:04:28;;;;;;;;;;;9.00;99.90;;;;;;5059157;28;19921;-65
2024/01/04 01:06:56;;;;;;;;;;;9.00;99.90;;;;;;5058002;28;19927;-64
2024/01/04 01:09:24;;;;;;;;;;;9.00;99.90;;;;;;5055521;28;19927;-64
2024/01/04 01:11:51;;;;;;;;;;;8.90;99.90;;;;;;5053697;28;19921;-64
2024/01/04 01:14:21;;;;;;;;;;;8.90;99.90;;;;;;5061083;28;20374;-64
2024/01/04 01:16:48;;;;;;;;;;;8.90;99.90;;;;;;5058200;28;19925;-64
2024/01/04 01:19:16;;;;;;;;;;;8.90;99.90;;;;;;5056958;28;20383;-65
2024/01/04 01:21:44;;;;;;;;;;;8.90;99.90;;;;;;5054706;28;19925;-64
2024/01/04 01:24:12;;;;;;;;;;;8.90;99.90;;;;;;5059968;28;20304;-64
2024/01/04 01:26:39;;;;;;;;;;;9.00;99.90;;;;;;5057219;28;19967;-63
2024/01/04 01:29:07;;;;;;;;;;;8.90;99.90;;;;;;5060693;28;20007;-63
2024/01/04 01:31:41;;;;;;;;;;;8.90;99.90;;;;;;5053284;28;20288;-63
2024/01/04 01:34:09;;;;;;;;;;;8.90;99.90;;;;;;5062627;28;20284;-63
2024/01/04 01:36:40;;;;;;;;;;;8.90;99.90;;;;;;5054913;28;19999;-63
2024/01/04 01:39:08;;;;;;;;;;;8.80;99.90;;;;;;5059787;28;19927;-63
2024/01/04 01:41:38;;;;;;;;;;;8.80;99.90;;;;;;5055373;28;20179;-63
2024/01/04 01:44:05;;;;;;;;;;;8.80;99.90;;;;;;5056772;28;19921;-63
2024/01/04 01:46:33;;;;;;;;;;;8.80;99.90;;;;;;5052927;28;19925;-63
2024/01/04 01:49:03;;;;;;;;;;;8.80;99.90;;;;;;5058552;28;20381;-64
2024/01/04 01:51:31;;;;;;;;;;;8.80;99.90;;;;;;5052827;28;20384;-63
2024/01/04 01:53:59;;;;;;;;;;;8.80;99.90;;;;;;5059644;28;20379;-63
2024/01/04 01:56:27;;;;;;;;;;;8.80;99.90;;;;;;5051952;28;20379;-63
2024/01/04 01:58:54;;;;;;;;;;;8.80;99.90;;;;;;5051828;28;19936;-64
2024/01/04 02:01:22;;;;;;;;;;;8.90;99.90;;;;;;5055423;28;19935;-63
2024/01/04 02:03:50;;;;;;;;;;;8.90;99.90;;;;;;5059589;28;19994;-63
2024/01/04 02:06:21;;;;;;;;;;;9.00;99.90;;;;;;5055651;28;19921;-64
2024/01/04 02:08:49;;;;;;;;;;;9.00;99.90;;;;;;5054635;28;19971;-64
2024/01/04 02:11:17;;;;;;;;;;;9.00;99.90;;;;;;5056888;28;19932;-64
2024/01/04 02:13:44;;;;;;;;;;;9.00;99.90;;;;;;5055452;28;20342;-64
2024/01/04 02:16:12;;;;;;;;;;;8.90;99.90;;;;;;5054519;28;19921;-63
2024/01/04 02:18:40;;;;;;;;;;;8.80;99.90;;;;;;5058522;28;19928;-64
2024/01/04 02:21:09;;;;;;;;;;;8.80;99.90;;;;;;5058564;28;19970;-64
2024/01/04 02:23:38;;;;;;;;;;;8.80;99.90;;;;;;5062622;28;19920;-64
2024/01/04 02:26:06;;;;;;;;;;;8.80;99.90;;;;;;5057059;28;19967;-64
2024/01/04 02:28:34;;;;;;;;;;;8.70;99.90;;;;;;5060983;28;19924;-64
2024/01/04 02:31:01;;;;;;;;;;;8.70;99.90;;;;;;5057485;28;19935;-65
2024/01/04 02:33:29;;;;;;;;;;;8.70;99.90;;;;;;5060511;28;19959;-65
2024/01/04 02:35:57;;;;;;;;;;;8.60;99.90;;;;;;5053174;28;19975;-65
2024/01/04 02:38:25;;;;;;;;;;;8.60;99.90;;;;;;5055094;28;20327;-64
2024/01/04 02:40:54;;;;;;;;;;;8.60;99.90;;;;;;5053577;28;19928;-64
2024/01/04 02:43:22;;;;;;;;;;;8.60;99.90;;;;;;5057522;28;20295;-65
2024/01/04 02:45:50;;;;;;;;;;;8.50;99.90;;;;;;5056029;28;20410;-65
2024/01/04 02:48:17;;;;;;;;;;;8.50;99.90;;;;;;5059845;28;19925;-64
2024/01/04 02:50:45;;;;;;;;;;;8.50;99.90;;;;;;5059420;28;19956;-65
2024/01/04 02:53:13;;;;;;;;;;;8.50;99.90;;;;;;5058044;28;19920;-65
2024/01/04 02:55:41;;;;;;;;;;;8.50;99.90;;;;;;5053107;28;19943;-65
2024/01/04 02:58:10;;;;;;;;;;;8.50;99.90;;;;;;5057219;28;19991;-65
2024/01/04 03:00:38;;;;;;;;;;;8.50;99.90;;;;;;5055701;28;19986;-65
2024/01/04 03:03:06;;;;;;;;;;;8.50;99.90;;;;;;5061610;28;19943;-64
2024/01/04 03:05:33;;;;;;;;;;;8.50;99.90;;;;;;5054412;28;19924;-64
2024/01/04 03:08:01;;;;;;;;;;;8.50;99.90;;;;;;5055994;28;20299;-65
2024/01/04 03:10:29;;;;;;;;;;;8.50;99.90;;;;;;5014119;28;20051;-65
2024/01/04 03:12:57;;;;;;;;;;;8.50;99.90;;;;;;5017617;28;19925;-65
2024/01/04 03:15:26;;;;;;;;;;;8.60;99.90;;;;;;5017527;28;19925;-66
2024/01/04 03:17:54;;;;;;;;;;;8.50;99.90;;;;;;5012822;28;20380;-66
2024/01/04 03:20:22;;;;;;;;;;;8.60;99.90;;;;;;5014070;28;19921;-64
2024/01/04 03:22:50;;;;;;;;;;;8.60;99.90;;;;;;5014611;28;20016;-65
2024/01/04 03:25:18;;;;;;;;;;;8.70;99.90;;;;;;5020166;28;19929;-66
2024/01/04 03:27:45;;;;;;;;;;;8.60;99.90;;;;;;5026397;28;20396;-66
2024/01/04 03:30:13;;;;;;;;;;;8.70;99.90;;;;;;5024947;28;20400;-66
2024/01/04 03:32:42;;;;;;;;;;;8.60;99.90;;;;;;5024426;28;19968;-65
2024/01/04 03:35:10;;;;;;;;;;;8.60;99.90;;;;;;5023660;28;19921;-65
2024/01/04 03:37:38;;;;;;;;;;;8.60;99.90;;;;;;5019414;28;19928;-65
2024/01/04 03:40:07;;;;;;;;;;;8.60;99.90;;;;;;5027712;28;19929;-65
2024/01/04 03:42:35;;;;;;;;;;;8.60;99.90;;;;;;5020516;28;19974;-65
2024/01/04 03:45:03;;;;;;;;;;;8.60;99.90;;;;;;5020655;28;19921;-65
2024/01/04 03:47:32;;;;;;;;;;;8.60;99.90;;;;;;5025663;28;20392;-64
2024/01/04 03:50:02;;;;;;;;;;;8.50;99.90;;;;;;5027047;28;19975;-65
2024/01/04 03:52:30;;;;;;;;;;;8.50;99.90;;;;;;5020692;28;19929;-65
2024/01/04 03:54:58;;;;;;;;;;;8.40;99.90;;;;;;5020038;28;20376;-65
2024/01/04 03:57:26;;;;;;;;;;;8.50;99.90;;;;;;5020952;28;20343;-65
2024/01/04 03:59:53;;;;;;;;;;;8.40;99.90;;;;;;5022174;28;19976;-65
2024/01/04 04:02:21;;;;;;;;;;;8.40;99.90;;;;;;5024911;28;20007;-65
2024/01/04 04:04:50;;;;;;;;;;;8.50;99.90;;;;;;5021291;28;20384;-64
2024/01/04 04:07:19;;;;;;;;;;;8.50;99.90;;;;;;5018218;28;19925;-65
2024/01/04 04:09:46;;;;;;;;;;;8.50;99.90;;;;;;5051424;28;20373;-64
2024/01/04 04:12:14;;;;;;;;;;;8.50;99.90;;;;;;5056732;28;19928;-65
2024/01/04 04:14:42;;;;;;;;;;;8.50;99.90;;;;;;5068701;28;19928;-64
2024/01/04 04:17:10;;;;;;;;;;;8.60;99.90;;;;;;5058711;28;20350;-64
2024/01/04 04:19:38;;;;;;;;;;;8.60;99.90;;;;;;5068748;28;19965;-65
2024/01/04 04:22:06;;;;;;;;;;;8.50;99.90;;;;;;5057971;28;19931;-65
2024/01/04 04:24:35;;;;;;;;;;;8.60;99.90;;;;;;5065257;28;19929;-64
2024/01/04 04:27:03;;;;;;;;;;;8.60;99.90;;;;;;5072377;28;19927;-65
2024/01/04 04:29:31;;;;;;;;;;;8.60;99.90;;;;;;5063128;28;19921;-65
2024/01/04 04:31:58;;;;;;;;;;;8.50;99.90;;;;;;5062719;28;20468;-65
2024/01/04 04:34:25;;;;;;;;;;;8.50;99.90;;;;;;5057928;28;19924;-64
2024/01/04 04:36:53;;;;;;;;;;;8.50;99.90;;;;;;5054783;28;19935;-64
2024/01/04 04:39:21;;;;;;;;;;;8.50;99.90;;;;;;5063972;28;19927;-64
2024/01/04 04:41:50;;;;;;;;;;;8.60;99.90;;;;;;5056239;28;19998;-64
2024/01/04 04:44:18;;;;;;;;;;;8.50;99.90;;;;;;5060812;28;19983;-64
2024/01/04 04:46:45;;;;;;;;;;;8.50;99.90;;;;;;5062036;28;19928;-64
2024/01/04 04:49:13;;;;;;;;;;;8.50;99.90;;;;;;5061076;28;19920;-64
2024/01/04 04:51:44;;;;;;;;;;;8.40;99.90;;;;;;5054983;28;19927;-64
2024/01/04 04:54:12;;;;;;;;;;;8.40;99.90;;;;;;5056509;28;20280;-64
2024/01/04 04:56:40;;;;;;;;;;;8.30;99.90;;;;;;5063265;28;20386;-64
2024/01/04 04:59:09;;;;;;;;;;;8.30;99.90;;;;;;5055700;28;19920;-64
2024/01/04 05:01:37;;;;;;;;;;;8.30;99.90;;;;;;5061612;28;19993;-63
2024/01/04 05:04:05;;;;;;;;;;;8.20;99.90;;;;;;5061126;28;19925;-63
2024/01/04 05:06:32;;;;;;;;;;;8.20;99.90;;;;;;5062826;28;19920;-63
2024/01/04 05:09:01;;;;;;;;;;;8.30;99.90;;;;;;5059067;28;20376;-63
2024/01/04 05:11:28;;;;;;;;;;;8.30;99.90;;;;;;5062856;28;20416;-64
2024/01/04 05:13:56;;;;;;;;;;;8.20;99.90;;;;;;5056914;28;19921;-64
2024/01/04 05:16:25;;;;;;;;;;;8.30;99.90;;;;;;5057647;28;19928;-64
2024/01/04 05:18:53;;;;;;;;;;;8.30;99.90;;;;;;5058765;28;20395;-64
2024/01/04 05:21:21;;;;;;;;;;;8.30;99.90;;;;;;5062135;28;19921;-64
2024/01/04 05:23:49;;;;;;;;;;;8.20;99.90;;;;;;5053252;28;20015;-64
2024/01/04 05:26:21;;;;;;;;;;;8.20;99.90;;;;;;5050955;28;20409;-65
2024/01/04 05:28:48;;;;;;;;;;;8.20;99.90;;;;;;5050813;28;19963;-64
2024/01/04 05:31:18;;;;;;;;;;;8.10;99.90;;;;;;5050598;28;19925;-65
2024/01/04 05:33:48;;;;;;;;;;;8.10;99.90;;;;;;5051199;28;19931;-66
2024/01/04 05:36:16;;;;;;;;;;;8.20;99.90;;;;;;5048091;28;20354;-67
2024/01/04 05:38:44;;;;;;;;;;;8.10;99.90;;;;;;5050593;28;19960;-66
2024/01/04 05:41:12;;;;;;;;;;;8.20;99.90;;;;;;5051506;28;19924;-66
2024/01/04 05:43:40;;;;;;;;;;;8.30;99.90;;;;;;5051382;28;20020;-65
2024/01/04 05:46:07;;;;;;;;;;;8.30;99.90;;;;;;5051932;28;19974;-66
2024/01/04 05:48:35;;;;;;;;;;;8.30;99.90;;;;;;5052006;28;19974;-65
2024/01/04 05:51:05;;;;;;;;;;;8.20;99.90;;;;;;5043343;28;19921;-65
2024/01/04 05:53:33;;;;;;;;;;;8.20;99.90;;;;;;5048593;28;19921;-66
2024/01/04 05:56:01;;;;;;;;;;;8.20;99.90;;;;;;5051586;28;19921;-66
2024/01/04 05:58:29;;;;;;;;;;;8.30;99.90;;;;;;5051659;28;19998;-65
2024/01/04 06:00:57;;;;;;;;;;;8.30;99.90;;;;;;5051036;28;19920;-65
2024/01/04 06:03:25;;;;;;;;;;;8.30;99.90;;;;;;5048699;28;19921;-65
2024/01/04 06:05:53;;;;;;;;;;;8.30;99.90;;;;;;5051397;28;19921;-65
2024/01/04 06:08:46;;;;;;;;;;;8.40;99.90;;;;;;5051300;28;20269;-65
2024/01/04 06:11:15;;;;;;;;;;;8.30;99.90;;;;;;5044419;28;19974;-65
2024/01/04 06:13:43;;;;;;;;;;;8.30;99.90;;;;;;5051671;28;20015;-65
2024/01/04 06:16:11;;;;;;;;;;;8.30;99.90;;;;;;5050010;28;19921;-65
2024/01/04 06:18:38;;;;;;;;;;;8.40;99.90;;;;;;5054236;28;19924;-65
2024/01/04 06:21:06;;;;;;;;;;;8.30;99.90;;;;;;5053377;28;20332;-67
2024/01/04 06:23:34;;;;;;;;;;;8.30;99.90;;;;;;5055164;28;20007;-66
2024/01/04 06:26:05;;;;;;;;;;;8.20;99.90;;;;;;5046160;28;20015;-66
2024/01/04 06:28:36;;;;;;;;;;;8.20;99.90;;;;;;5060880;28;19920;-67
2024/01/04 06:31:04;;;;;;;;;;;8.20;99.90;;;;;;5053842;28;19920;-66
2024/01/04 06:33:32;;;;;;;;;;;8.20;99.90;;;;;;5055246;28;19932;-66
2024/01/04 06:36:01;;;;;;;;;;;8.20;99.90;;;;;;5047684;28;19928;-66
2024/01/04 06:38:29;;;;;;;;;;;8.30;99.90;;;;;;5031100;28;20284;-66
2024/01/04 06:40:58;;;;;;;;;;;8.30;99.90;;;;;;5028333;28;19928;-68
2024/01/04 06:43:26;;;;;;;;;;;8.30;99.90;;;;;;5031131;28;19921;-66
2024/01/04 06:45:56;;;;;;;;;;;8.30;99.90;;;;;;5027008;28;20017;-69
2024/01/04 06:48:24;;;;;;;;;;;8.40;99.90;;;;;;5034681;28;19929;-67
2024/01/04 06:50:52;;;;;;;;;;;8.40;99.90;;;;;;5034568;28;19968;-68
2024/01/04 06:53:20;;;;;;;;;;;8.40;99.90;;;;;;5035695;28;19929;-66
2024/01/04 06:55:47;;;;;;;;;;;8.50;99.90;;;;;;5032353;28;19963;-66
2024/01/04 06:58:15;;;;;;;;;;;8.50;99.90;;;;;;5035747;28;19929;-68
2024/01/04 07:00:43;;;;;;;;;;;8.50;99.90;;;;;;5034989;28;19978;-65
2024/01/04 07:03:12;;;;;;;;;;;8.40;99.90;;;;;;5035055;28;20854;-67
2024/01/04 07:05:40;;;;;;;;;;;8.40;99.90;;;;;;5032062;28;19932;-68
2024/01/04 07:08:08;;;;;;;;;;;8.40;99.90;;;;;;5034471;28;19933;-65
2024/01/04 07:10:36;;;;;;;;;;;8.50;99.90;;;;;;5035078;28;19978;-65
2024/01/04 07:13:04;;;;;;;;;;;8.50;99.90;;;;;;5034460;28;19963;-67
2024/01/04 07:15:31;;;;;;;;;;;8.40;99.90;;;;;;5032538;28;20716;-65
2024/01/04 07:17:59;;;;;;;;;;;8.40;99.90;;;;;;5034259;28;19920;-65
2024/01/04 07:20:28;;;;;;;;;;;8.40;99.90;;;;;;5034697;28;19928;-69
2024/01/04 07:22:56;;;;;;;;;;;8.30;99.90;;;;;;5034715;28;19932;-65
2024/01/04 07:25:24;;;;;;;;;;;8.30;99.90;;;;;;5034001;28;19928;-67
2024/01/04 07:27:52;;;;;;;;;;;8.30;99.90;;;;;;5034937;28;19932;-66
2024/01/04 07:30:20;;;;;;;;;;;8.30;99.90;;;;;;5034964;28;21075;-68
2024/01/04 07:32:47;;;;;;;;;;;8.30;99.90;;;;;;5034695;28;20966;-64
2024/01/04 07:35:16;;;;;;;;;;;8.30;99.90;;;;;;5032700;28;19928;-68
2024/01/04 07:37:46;;;;;;;;;;;8.30;99.90;;;;;;5034664;28;20589;-66
2024/01/04 07:40:14;;;;;;;;;;;8.30;99.90;;;;;;5022779;28;19929;-69
2024/01/04 07:42:41;;;;;;;;;;;8.30;99.90;;;;;;5035477;28;19959;-67
2024/01/04 07:45:09;;;;;;;;;;;8.30;99.90;;;;;;5034855;28;20002;-66
2024/01/04 07:47:37;;;;;;;;;;;8.30;99.90;;;;;;5034977;28;19928;-65
2024/01/04 07:50:06;;;;;;;;;;;8.30;99.90;;;;;;5034224;28;20025;-65
2024/01/04 07:52:34;;;;;;;;;;;8.30;99.90;;;;;;5034468;28;20388;-67
2024/01/04 07:55:03;;;;;;;;;;;8.30;99.90;;;;;;5033704;28;19924;-67
2024/01/04 07:57:34;;;;;;;;;;;8.30;99.90;;;;;;5034841;28;20323;-67
2024/01/04 08:00:02;;;;;;;;;;;8.20;99.90;;;;;;5033660;28;19928;-66
2024/01/04 08:02:32;;;;;;;;;;;8.20;99.90;;;;;;5034438;28;19936;-69
2024/01/04 08:05:00;;;;;;;;;;;8.10;99.90;;;;;;5034948;28;19929;-67
2024/01/04 08:07:28;;;;;;;;;;;8.10;99.90;;;;;;5034061;28;19920;-66
2024/01/04 08:09:56;;;;;;;;;;;8.10;99.90;;;;;;5035829;28;19928;-66
2024/01/04 08:12:25;;;;;;;;;;;8.10;99.90;;;;;;5039338;28;19936;-67
2024/01/04 08:14:53;;;;;;;;;;;8.10;99.90;;;;;;5038853;28;19932;-66
2024/01/04 08:17:20;;;;;;;;;;;8.10;99.90;;;;;;5037851;28;20047;-66
2024/01/04 08:19:48;;;;;;;;;;;8.10;99.90;;;;;;5036883;28;19928;-69
2024/01/04 08:22:16;;;;;;;;;;;8.10;99.90;;;;;;5037677;28;19935;-66
2024/01/04 08:24:44;;;;;;;;;;;8.10;99.90;;;;;;5038183;28;19991;-69
2024/01/04 08:27:12;;;;;;;;;;;8.10;99.90;;;;;;5038963;28;20369;-67
2024/01/04 08:29:45;;;;;;;;;;;8.20;99.90;;;;;;5038203;28;19929;-66
2024/01/04 08:32:13;;;;;;;;;;;8.20;99.90;;;;;;5038565;28;19929;-67
2024/01/04 08:34:41;;;;;;;;;;;8.20;99.90;;;;;;5038255;28;19947;-69
2024/01/04 08:37:09;;;;;;;;;;;8.30;99.90;;;;;;5037946;28;20395;-67
2024/01/04 08:39:37;;;;;;;;;;;8.30;99.90;;;;;;5037433;28;19936;-65
2024/01/04 08:42:05;;;;;;;;;;;8.30;99.90;;;;;;5036185;28;19935;-66
2024/01/04 08:44:32;;;;;;;;;;;8.40;99.90;;;;;;5037134;28;20145;-68
2024/01/04 08:47:01;;;;;;;;;;;8.40;99.90;;;;;;5037213;28;19928;-67
2024/01/04 08:49:29;;;;;;;;;;;8.40;99.90;;;;;;5036963;28;19920;-67
2024/01/04 08:51:57;;;;;;;;;;;8.60;99.90;;;;;;5037757;28;19928;-68
2024/01/04 08:54:25;;;;;;;;;;;8.50;99.90;;;;;;5038121;28;19924;-67
2024/01/04 08:56:54;;;;;;;;;;;8.60;99.90;;;;;;5038304;28;19937;-66
2024/01/04 08:59:22;;;;;;;;;;;8.60;99.90;;;;;;5038597;28;19978;-67
2024/01/04 09:01:50;;;;;;;;;;;8.50;99.90;;;;;;5038361;28;19933;-66
2024/01/04 09:04:20;;;;;;;;;;;8.50;99.90;;;;;;5037528;28;20002;-67
2024/01/04 09:06:48;;;;;;;;;;;8.50;99.90;;;;;;5037734;28;19932;-67
2024/01/04 09:09:16;;;;;;;;;;;8.50;99.90;;;;;;5035785;28;19924;-68
2024/01/04 09:11:48;;;;;;;;;;;8.50;99.90;;;;;;5037039;28;20399;-69
2024/01/04 09:14:16;;;;;;;;;;;8.50;99.90;;;;;;5037572;28;19935;-67
2024/01/04 09:16:44;;;;;;;;;;;8.50;99.90;;;;;;5038380;28;19928;-69
2024/01/04 09:19:15;;;;;;;;;;;8.50;99.90;;;;;;5036618;28;20007;-66
2024/01/04 09:21:44;;;;;;;;;;;8.50;99.90;;;;;;5037187;28;19935;-69
2024/01/04 09:24:13;;;;;;;;;;;8.50;99.90;;;;;;5036803;28;20014;-67
2024/01/04 09:26:41;;;;;;;;;;;8.50;99.90;;;;;;5037021;28;19987;-66
2024/01/04 09:29:09;;;;;;;;;;;8.50;99.90;;;;;;5036658;28;21007;-66
2024/01/04 09:31:37;;;;;;;;;;;8.50;99.90;;;;;;5037580;28;19935;-67
2024/01/04 09:34:05;;;;;;;;;;;8.60;99.90;;;;;;5036484;28;19951;-67
2024/01/04 09:36:33;;;;;;;;;;;8.60;99.90;;;;;;5037026;28;19969;-68
2024/01/04 09:39:03;;;;;;;;;;;8.60;99.90;;;;;;5036420;28;19928;-65
2024/01/04 09:41:32;;;;;;;;;;;8.60;99.90;;;;;;5035871;28;20014;-68
2024/01/04 09:44:03;;;;;;;;;;;8.60;99.90;;;;;;5035746;28;19921;-68
2024/01/04 09:46:33;;;;;;;;;;;8.60;99.90;;;;;;5036857;28;19929;-67
2024/01/04 09:49:01;;;;;;;;;;;8.60;99.90;;;;;;5035812;28;19929;-68
2024/01/04 09:51:30;;;;;;;;;;;8.50;99.90;;;;;;5037402;28;19920;-69
2024/01/04 09:53:58;;;;;;;;;;;8.60;99.90;;;;;;5037467;28;20000;-67
2024/01/04 09:56:28;;;;;;;;;;;8.60;99.90;;;;;;5037474;28;19920;-66
2024/01/04 09:58:56;;;;;;;;;;;8.60;99.90;;;;;;5034857;28;19930;-66
2024/01/04 10:01:25;;;;;;;;;;;8.60;99.90;;;;;;5036289;28;19928;-68
2024/01/04 10:03:59;;;;;;;;;;;8.70;99.90;;;;;;5036330;28;19991;-66
2024/01/04 10:06:30;;;;;;;;;;;8.70;99.90;;;;;;5037196;28;19924;-67
2024/01/04 10:09:04;;;;;;;;;;;8.70;99.90;;;;;;5033166;28;19921;-68
2024/01/04 10:11:36;;;;;;;;;;;8.70;99.90;;;;;;5036358;28;19982;-66
2024/01/04 10:14:05;;;;;;;;;;;8.80;99.90;;;;;;5035980;28;19929;-66
2024/01/04 10:16:33;;;;;;;;;;;8.80;99.90;;;;;;5035799;28;19928;-67
2024/01/04 10:19:03;;;;;;;;;;;8.80;99.90;;;;;;5038054;28;19924;-68
2024/01/04 10:21:32;;;;;;;;;;;8.80;99.90;;;;;;5058410;28;19929;-66
2024/01/04 10:23:59;;;;;;;;;;;8.90;99.90;;;;;;5056110;28;19973;-66
2024/01/04 10:26:27;;;;;;;;;;;8.90;99.90;;;;;;5051471;28;19968;-67
2024/01/04 10:28:59;;;;;;;;;;;8.90;99.90;;;;;;5058515;28;19921;-67
2024/01/04 10:31:27;;;;;;;;;;;8.90;99.90;;;;;;5062439;28;19929;-65
2024/01/04 10:33:58;;;;;;;;;;;8.90;99.90;;;;;;5060321;28;19968;-68
2024/01/04 10:36:28;;;;;;;;;;;8.90;99.90;;;;;;5039562;28;19920;-64
2024/01/04 10:38:57;;;;;;;;;;;9.00;99.90;;;;;;5062347;28;19935;-64
2024/01/04 10:41:27;;;;;;;;;;;9.00;99.90;;;;;;5055299;28;19929;-65
2024/01/04 10:44:06;;;;;;;;;;;9.00;99.90;;;;;;5059824;28;19928;-65
2024/01/04 10:46:35;;;;;;;;;;;9.10;99.90;;;;;;5059090;28;19927;-64
2024/01/04 10:49:03;;;;;;;;;;;9.10;99.90;;;;;;5049556;28;19921;-64
2024/01/04 10:51:32;;;;;;;;;;;9.10;99.90;;;;;;5060937;28;19920;-66
2024/01/04 10:54:01;;;;;;;;;;;9.10;99.90;;;;;;5050519;28;20299;-66
2024/01/04 10:56:29;;;;;;;;;;;9.10;99.90;;;;;;5054298;28;19927;-66
2024/01/04 10:58:57;;;;;;;;;;;9.20;99.90;;;;;;5061848;28;19982;-63
2024/01/04 11:01:27;;;;;;;;;;;9.20;99.90;;;;;;5054818;28;20365;-65
2024/01/04 11:03:55;;;;;;;;;;;9.20;99.90;;;;;;5059158;28;20272;-62
2024/01/04 11:06:26;;;;;;;;;;;9.30;99.90;;;;;;5059269;28;20008;-67
2024/01/04 11:08:55;;;;;;;;;;;9.20;99.90;;;;;;5064452;28;20034;-64
2024/01/04 11:11:25;;;;;;;;;;;9.20;99.90;;;;;;5058549;28;19931;-64
2024/01/04 11:13:53;;;;;;;;;;;9.20;99.90;;;;;;5059603;28;19924;-64
2024/01/04 11:16:34;;;;;;;;;;;9.20;99.90;;;;;;5056139;28;19920;-65
2024/01/04 11:19:05;;;;;;;;;;;9.20;99.90;;;;;;5057548;28;19932;-65
2024/01/04 11:21:40;;;;;;;;;;;9.20;99.90;;;;;;5057939;28;20008;-64
2024/01/04 11:24:16;;;;;;;;;;;9.20;99.90;;;;;;5052287;28;19921;-65
2024/01/04 11:26:50;;;;;;;;;;;9.20;99.90;;;;;;5060253;28;19924;-64
2024/01/04 11:29:18;;;;;;;;;;;9.20;99.90;;;;;;5049581;28;19925;-64
2024/01/04 11:31:48;;;;;;;;;;;9.20;99.90;;;;;;5051048;28;20352;-64
2024/01/04 11:34:16;;;;;;;;;;;9.10;99.90;;;;;;5050273;28;19920;-65
2024/01/04 11:36:44;;;;;;;;;;;9.20;99.90;;;;;;5051811;28;19920;-65
2024/01/04 11:39:12;;;;;;;;;;;9.20;99.90;;;;;;5049159;28;19921;-66
2024/01/04 11:41:39;;;;;;;;;;;9.30;99.90;;;;;;5056214;28;19924;-64
2024/01/04 11:44:15;;;;;;;;;;;9.30;99.90;;;;;;5061938;28;20383;-64
2024/01/04 11:46:43;;;;;;;;;;;9.40;99.90;;;;;;5058684;28;19925;-65
2024/01/04 11:49:13;;;;;;;;;;;9.50;99.90;;;;;;5063748;28;20402;-65
2024/01/04 11:51:44;;;;;;;;;;;9.60;99.90;;;;;;5058321;28;19936;-64
2024/01/04 11:54:13;;;;;;;;;;;9.70;99.90;;;;;;5057396;28;19920;-65
2024/01/04 11:56:41;;;;;;;;;;;10.10;99.90;;;;;;5061311;28;19982;-65
2024/01/04 11:59:10;;;;;;;;;;;10.40;99.90;;;;;;5064288;28;20288;-65
2024/01/04 12:01:39;;;;;;;;;;;10.80;99.90;;;;;;5060521;28;20016;-65
2024/01/04 12:04:07;;;;;;;;;;;11.30;99.90;;;;;;5065189;28;20342;-62
2024/01/04 12:06:38;;;;;;;;;;;11.70;99.90;;;;;;5063183;28;20011;-64
2024/01/04 12:09:07;;;;;;;;;;;11.90;99.90;;;;;;5083413;22;20002;-69
2024/01/04 12:11:35;;;;;;;;;;;12.20;99.90;;;;;;5060286;28;19921;-68
2024/01/04 12:14:03;;;;;;;;;;;11.90;99.90;;;;;;5044903;28;19921;-68
2024/01/04 12:16:32;;;;;;;;;;;11.40;99.90;;;;;;5053735;28;19974;-69
2024/01/04 12:19:01;;;;;;;;;;;11.10;99.90;;;;;;5049728;28;19924;-67
2024/01/04 12:21:29;;;;;;;;;;;10.80;99.90;;;;;;5054458;28;20006;-68
2024/01/04 12:23:58;;;;;;;;;;;10.50;99.90;;;;;;5060211;28;19921;-69
2024/01/04 12:26:28;;;;;;;;;;;10.40;99.90;;;;;;5057451;28;20338;-70
2024/01/04 12:28:56;;;;;;;;;;;10.40;99.90;;;;;;5052477;28;19921;-70
2024/01/04 12:31:24;;;;;;;;;;;10.50;99.90;;;;;;5058546;28;19920;-67
2024/01/04 12:33:53;;;;;;;;;;;10.50;99.90;;;;;;5052742;28;19924;-69
2024/01/04 12:36:22;;;;;;;;;;;10.50;99.90;;;;;;5048795;28;19928;-68
2024/01/04 12:38:51;;;;;;;;;;;10.60;99.90;;;;;;5057606;28;19920;-68
2024/01/04 12:41:24;;;;;;;;;;;10.50;99.90;;;;;;5057687;28;19927;-71
2024/01/04 12:43:53;;;;;;;;;;;10.50;99.90;;;;;;5065476;28;19924;-69
2024/01/04 12:46:21;;;;;;;;;;;10.50;99.90;;;;;;5055277;28;19929;-67
2024/01/04 12:48:49;;;;;;;;;;;10.50;99.90;;;;;;5057252;28;20425;-69
2024/01/04 12:51:19;;;;;;;;;;;10.50;99.90;;;;;;5049825;28;19929;-69
2024/01/04 12:53:48;;;;;;;;;;;10.60;99.90;;;;;;5056554;28;19959;-70
2024/01/04 12:56:16;;;;;;;;;;;10.60;99.90;;;;;;5053062;28;20403;-69
2024/01/04 12:58:45;;;;;;;;;;;10.70;99.90;;;;;;5056486;28;19927;-69
2024/01/04 13:01:13;;;;;;;;;;;10.70;99.90;;;;;;5062264;28;19924;-69
2024/01/04 13:03:41;;;;;;;;;;;10.60;99.90;;;;;;5058346;28;20302;-69
2024/01/04 13:06:09;;;;;;;;;;;10.70;99.90;;;;;;5048676;28;20357;-69
2024/01/04 13:08:37;;;;;;;;;;;10.70;99.90;;;;;;5051539;28;19928;-69
2024/01/04 13:11:06;;;;;;;;;;;10.70;99.90;;;;;;5054402;28;19920;-71
2024/01/04 13:13:33;;;;;;;;;;;10.60;99.90;;;;;;5035473;28;20004;-69
2024/01/04 13:16:03;;;;;;;;;;;10.60;99.90;;;;;;5049849;28;20387;-70
2024/01/04 13:18:33;;;;;;;;;;;10.50;99.90;;;;;;5044492;28;20447;-69
2024/01/04 13:21:01;;;;;;;;;;;10.50;99.90;;;;;;5058108;28;19920;-71
2024/01/04 13:23:30;;;;;;;;;;;10.40;99.90;;;;;;5056717;28;19927;-70
2024/01/04 13:25:58;;;;;;;;;;;10.20;99.90;;;;;;5047648;28;20299;-73
2024/01/04 13:28:28;;;;;;;;;;;10.20;99.90;;;;;;5057949;28;19920;-69
2024/01/04 13:30:55;;;;;;;;;;;10.20;99.90;;;;;;5042941;28;19921;-71
2024/01/04 13:33:26;;;;;;;;;;;10.10;99.90;;;;;;5039032;28;20141;-69
2024/01/04 13:35:56;;;;;;;;;;;10.10;99.90;;;;;;5037630;28;20303;-70
2024/01/04 13:38:27;;;;;;;;;;;10.00;99.90;;;;;;5054006;28;20023;-69
2024/01/04 13:40:55;;;;;;;;;;;9.90;99.90;;;;;;5057628;28;19939;-70
2024/01/04 13:43:23;;;;;;;;;;;9.80;99.90;;;;;;5059032;28;19934;-69
2024/01/04 13:45:52;;;;;;;;;;;9.80;99.90;;;;;;5058977;28;19975;-70
2024/01/04 13:48:20;;;;;;;;;;;9.70;99.90;;;;;;5058105;28;20395;-69
2024/01/04 13:50:49;;;;;;;;;;;9.60;99.90;;;;;;5046510;28;19928;-71
2024/01/04 13:53:17;;;;;;;;;;;9.60;99.90;;;;;;5062984;28;19927;-70
2024/01/04 13:55:47;;;;;;;;;;;9.50;99.90;;;;;;5061262;28;19927;-71
2024/01/04 13:58:15;;;;;;;;;;;9.50;99.90;;;;;;5060029;28;19924;-69
2024/01/04 14:00:42;;;;;;;;;;;9.50;99.90;;;;;;5053849;28;19975;-70
2024/01/04 14:03:10;;;;;;;;;;;9.40;99.90;;;;;;5051955;28;20375;-71
2024/01/04 14:05:44;;;;;;;;;;;9.50;99.90;;;;;;5051881;28;20446;-72
2024/01/04 14:08:25;;;;;;;;;;;9.60;99.90;;;;;;5049493;28;19920;-72
2024/01/04 14:10:56;;;;;;;;;;;9.60;99.90;;;;;;5051425;28;19924;-71
2024/01/04 14:13:24;;;;;;;;;;;9.60;99.90;;;;;;5056521;28;19975;-70
2024/01/04 14:15:52;;;;;;;;;;;9.50;99.90;;;;;;5051008;28;19921;-71
2024/01/04 14:18:19;;;;;;;;;;;9.60;99.90;;;;;;5058472;28;20098;-69
2024/01/04 14:20:47;;;;;;;;;;;9.50;99.90;;;;;;5051031;28;19968;-70
2024/01/04 14:23:15;;;;;;;;;;;9.40;99.90;;;;;;5043299;28;20307;-70
2024/01/04 14:25:45;;;;;;;;;;;9.30;99.90;;;;;;5035787;28;19928;-71
2024/01/04 14:28:13;;;;;;;;;;;9.30;99.90;;;;;;5031778;28;20000;-69
2024/01/04 14:30:40;;;;;;;;;;;9.20;99.90;;;;;;5033545;28;20387;-72
2024/01/04 14:33:08;;;;;;;;;;;9.20;99.90;;;;;;5035236;28;19928;-72
2024/01/04 14:35:40;;;;;;;;;;;9.30;99.90;;;;;;5032216;28;20287;-69